createdAt,value
2023-02-25T00:00:36.889Z,143.73
2023-02-25T00:03:04.674Z,147.27
2023-02-25T00:05:33.863Z,144.93
2023-02-25T00:08:01.709Z,148.93
2023-02-25T00:10:29.963Z,144.87
2023-02-25T00:13:12.201Z,143.27
2023-02-25T00:15:44.899Z,139.33
2023-02-25T00:18:12.542Z,138.50
2023-02-25T00:20:42.276Z,149.27
2023-02-25T00:23:10.226Z,144.67
2023-02-25T00:25:37.979Z,149.30
2023-02-25T00:28:06.348Z,146.33
2023-02-25T00:30:34.216Z,150.70
2023-02-25T00:33:02.222Z,145.57
2023-02-25T00:35:30.171Z,143.23
2023-02-25T00:38:13.889Z,134.57
2023-02-25T00:40:43.464Z,135.57
2023-02-25T00:43:11.155Z,140.77
2023-02-25T00:45:40.323Z,140.60
2023-02-25T00:48:08.173Z,136.90
2023-02-25T00:50:39.650Z,151.10
2023-02-25T00:53:08.702Z,149.13
2023-02-25T00:55:36.597Z,134.73
2023-02-25T00:58:04.445Z,146.27
2023-02-25T01:00:40.486Z,138.77
2023-02-25T01:03:14.226Z,124.20
2023-02-25T01:05:42.849Z,135.93
2023-02-25T01:08:12.063Z,146.20
2023-02-25T01:10:39.711Z,149.47
2023-02-25T01:13:07.577Z,149.90
2023-02-25T01:15:35.426Z,163.23
2023-02-25T01:18:03.303Z,143.47
2023-02-25T01:20:31.581Z,155.77
2023-02-25T01:22:59.245Z,136.20
2023-02-25T01:25:28.211Z,140.40
2023-02-25T01:27:56.237Z,148.97
2023-02-25T01:30:24.664Z,153.67
2023-02-25T01:32:53.186Z,138.93
2023-02-25T01:35:20.845Z,155.17
2023-02-25T01:37:49.864Z,137.10
2023-02-25T01:40:18.869Z,146.07
2023-02-25T01:42:48.397Z,144.47
2023-02-25T01:45:29.708Z,144.17
2023-02-25T01:48:02.777Z,140.57
2023-02-25T01:50:36.842Z,151.70
2023-02-25T01:53:05.732Z,139.37
2023-02-25T01:55:34.599Z,133.83
2023-02-25T01:58:03.827Z,135.40
2023-02-25T02:00:33.658Z,139.10
2023-02-25T02:03:01.836Z,129.53
2023-02-25T02:05:43.607Z,129.93
2023-02-25T02:08:12.222Z,137.67
2023-02-25T02:10:39.916Z,131.33
2023-02-25T02:13:09.219Z,136.43
2023-02-25T02:15:42.717Z,130.00
2023-02-25T02:18:11.149Z,135.17
2023-02-25T02:20:52.379Z,131.90
2023-02-25T02:24:10.014Z,139.13
2023-02-25T02:27:02.193Z,124.50
2023-02-25T02:30:05.531Z,126.27
2023-02-25T02:32:38.764Z,124.17
2023-02-25T02:35:18.942Z,139.97
2023-02-25T02:37:57.982Z,128.63
2023-02-25T02:40:42.026Z,133.90
2023-02-25T02:43:22.680Z,131.47
2023-02-25T02:45:57.866Z,133.67
2023-02-25T02:48:32.265Z,131.73
2023-02-25T02:51:04.981Z,136.63
2023-02-25T02:53:37.603Z,131.43
2023-02-25T02:56:08.674Z,144.03
2023-02-25T02:58:41.835Z,131.50
2023-02-25T03:01:16.525Z,138.07
2023-02-25T03:03:52.329Z,140.50
2023-02-25T03:06:28.141Z,152.23
2023-02-25T03:09:01.280Z,146.50
2023-02-25T03:11:29.019Z,142.70
2023-02-25T03:13:57.565Z,138.83
2023-02-25T03:16:30.139Z,147.37
2023-02-25T03:19:04.394Z,137.97
2023-02-25T03:21:39.794Z,138.00
2023-02-25T03:24:28.889Z,138.77
2023-02-25T03:26:56.725Z,146.40
2023-02-25T03:29:28.414Z,137.70
2023-02-25T03:32:03.288Z,145.93
2023-02-25T03:34:37.645Z,146.03
2023-02-25T03:37:09.307Z,148.80
2023-02-25T03:39:40.441Z,141.57
2023-02-25T03:42:13.629Z,145.80
2023-02-25T03:44:47.439Z,139.67
2023-02-25T03:47:18.825Z,145.70
2023-02-25T03:49:55.534Z,142.03
2023-02-25T03:52:25.233Z,141.93
2023-02-25T03:54:58.678Z,135.40
2023-02-25T03:57:35.639Z,135.97
2023-02-25T04:00:15.624Z,129.07
2023-02-25T04:02:44.075Z,133.87
2023-02-25T04:05:13.982Z,146.23
2023-02-25T04:07:41.877Z,143.03
2023-02-25T04:10:12.215Z,150.07
2023-02-25T04:12:40.353Z,157.67
2023-02-25T04:15:09.640Z,141.43
2023-02-25T04:17:37.578Z,144.37
2023-02-25T04:20:06.386Z,141.37
2023-02-25T04:22:35.979Z,156.70
2023-02-25T04:25:03.753Z,150.47
2023-02-25T04:27:32.439Z,149.00
2023-02-25T04:30:00.164Z,147.23
2023-02-25T04:32:28.028Z,141.30
2023-02-25T04:34:55.755Z,137.70
2023-02-25T04:37:23.356Z,149.67
2023-02-25T04:39:52.316Z,148.20
2023-02-25T04:42:19.931Z,141.97
2023-02-25T04:44:48.100Z,149.17
2023-02-25T04:47:15.745Z,139.50
2023-02-25T04:49:45.556Z,141.37
2023-02-25T04:52:14.459Z,137.90
2023-02-25T04:54:42.330Z,147.50
2023-02-25T04:57:12.129Z,146.97
2023-02-25T04:59:40.342Z,146.27
2023-02-25T05:02:08.352Z,148.40
2023-02-25T05:04:36.198Z,162.30
2023-02-25T05:07:04.077Z,144.23
2023-02-25T05:09:32.188Z,167.97
2023-02-25T05:11:59.887Z,164.70
2023-02-25T05:14:30.771Z,150.23
2023-02-25T05:16:59.534Z,151.97
2023-02-25T05:19:27.195Z,159.37
2023-02-25T05:21:54.918Z,148.73
2023-02-25T05:24:23.458Z,158.90
2023-02-25T05:26:52.275Z,144.63
2023-02-25T05:29:20.710Z,155.63
2023-02-25T05:31:51.740Z,150.37
2023-02-25T05:34:19.586Z,136.07
2023-02-25T05:36:47.482Z,153.83
2023-02-25T05:39:15.608Z,140.57
2023-02-25T05:41:43.574Z,141.43
2023-02-25T05:44:12.284Z,146.27
2023-02-25T05:46:39.969Z,153.80
2023-02-25T05:49:10.226Z,148.03
2023-02-25T05:51:37.888Z,141.40
2023-02-25T05:54:05.668Z,145.60
2023-02-25T05:56:33.338Z,146.10
2023-02-25T05:59:01.032Z,149.87
2023-02-25T06:01:29.481Z,145.60
2023-02-25T06:03:58.782Z,152.80
2023-02-25T06:06:29.830Z,161.33
2023-02-25T06:08:57.541Z,156.07
2023-02-25T06:11:28.536Z,160.23
2023-02-25T06:13:57.941Z,142.30
2023-02-25T06:16:31.780Z,147.20
2023-02-25T06:19:01.205Z,143.43
2023-02-25T06:21:30.936Z,145.50
2023-02-25T06:23:58.720Z,149.57
2023-02-25T06:26:26.579Z,142.27
2023-02-25T06:28:54.322Z,147.90
2023-02-25T06:31:24.522Z,124.57
2023-02-25T06:33:52.540Z,134.97
2023-02-25T06:36:21.509Z,139.07
2023-02-25T06:38:50.843Z,131.07
2023-02-25T06:41:21.338Z,146.50
2023-02-25T06:43:51.938Z,140.87
2023-02-25T06:46:23.429Z,139.57
2023-02-25T06:48:51.540Z,141.63
2023-02-25T06:51:19.267Z,148.70
2023-02-25T06:53:47.671Z,141.13
2023-02-25T06:56:20.102Z,152.97
2023-02-25T06:58:48.035Z,147.00
2023-02-25T07:01:17.475Z,144.70
2023-02-25T07:03:45.416Z,140.10
2023-02-25T07:06:15.697Z,140.20
2023-02-25T07:08:43.352Z,145.30
2023-02-25T07:11:15.048Z,145.90
2023-02-25T07:13:44.636Z,147.93
2023-02-25T07:16:13.052Z,137.47
2023-02-25T07:18:41.390Z,132.77
2023-02-25T07:21:09.413Z,141.63
2023-02-25T07:23:37.042Z,138.27
2023-02-25T07:26:05.253Z,137.43
2023-02-25T07:28:32.993Z,135.40
2023-02-25T07:31:02.691Z,130.33
2023-02-25T07:33:30.867Z,124.77
2023-02-25T07:35:59.038Z,128.67
2023-02-25T07:38:26.685Z,130.00
2023-02-25T07:40:54.352Z,130.53
2023-02-25T07:43:22.010Z,127.97
2023-02-25T07:45:50.213Z,136.87
2023-02-25T07:48:19.294Z,128.30
2023-02-25T07:50:46.954Z,121.43
2023-02-25T07:53:14.590Z,135.37
2023-02-25T07:55:43.549Z,131.10
2023-02-25T07:58:11.369Z,136.40
2023-02-25T08:00:39.456Z,133.10
2023-02-25T08:03:07.060Z,122.40
2023-02-25T08:05:36.739Z,128.07
2023-02-25T08:08:04.890Z,139.07
2023-02-25T08:10:32.765Z,125.80
2023-02-25T08:13:00.422Z,129.03
2023-02-25T08:15:28.068Z,125.70
2023-02-25T08:17:55.792Z,130.97
2023-02-25T08:20:24.216Z,120.17
2023-02-25T08:22:56.835Z,128.33
2023-02-25T08:25:24.432Z,129.60
2023-02-25T08:27:53.026Z,124.47
2023-02-25T08:30:21.826Z,127.43
2023-02-25T08:32:49.598Z,123.60
2023-02-25T08:35:17.425Z,144.00
2023-02-25T08:37:45.822Z,132.13
2023-02-25T08:40:14.893Z,121.67
2023-02-25T08:42:42.557Z,132.53
2023-02-25T08:45:11.062Z,133.87
2023-02-25T08:47:39.353Z,125.77
2023-02-25T08:50:08.198Z,125.93
2023-02-25T08:52:35.879Z,127.03
2023-02-25T08:55:04.465Z,139.53
2023-02-25T08:57:33.995Z,127.43
2023-02-25T09:00:01.676Z,130.67
2023-02-25T09:02:29.298Z,131.93
2023-02-25T09:04:57.588Z,134.07
2023-02-25T09:07:25.242Z,125.73
2023-02-25T09:09:52.862Z,131.20
2023-02-25T09:12:23.563Z,130.70
2023-02-25T09:14:53.585Z,122.97
2023-02-25T09:17:21.286Z,122.60
2023-02-25T09:19:49.041Z,135.27
2023-02-25T09:22:16.711Z,122.83
2023-02-25T09:24:44.342Z,124.40
2023-02-25T09:27:12.268Z,131.30
2023-02-25T09:29:41.353Z,128.40
2023-02-25T09:32:21.828Z,121.47
2023-02-25T09:34:50.422Z,117.47
2023-02-25T09:37:19.618Z,129.03
2023-02-25T09:39:47.583Z,138.17
2023-02-25T09:42:19.581Z,132.13
2023-02-25T09:44:50.302Z,129.83
2023-02-25T09:47:23.576Z,143.13
2023-02-25T09:49:56.918Z,123.13
2023-02-25T09:52:29.379Z,141.40
2023-02-25T09:55:00.750Z,137.17
2023-02-25T09:57:30.340Z,138.53
2023-02-25T09:59:58.173Z,135.70
2023-02-25T10:02:39.302Z,141.40
2023-02-25T10:05:19.136Z,133.83
2023-02-25T10:07:57.749Z,139.27
2023-02-25T10:10:31.366Z,152.40
2023-02-25T10:13:09.003Z,160.27
2023-02-25T10:15:52.944Z,138.13
2023-02-25T10:18:38.975Z,154.23
2023-02-25T10:21:16.666Z,136.20
2023-02-25T10:23:59.238Z,135.93
2023-02-25T10:26:32.531Z,129.37
2023-02-25T10:29:06.543Z,135.67
2023-02-25T10:31:34.541Z,148.33
2023-02-25T10:34:21.898Z,147.30
2023-02-25T10:36:55.395Z,149.40
2023-02-25T10:39:23.148Z,143.30
2023-02-25T10:41:51.598Z,154.97
2023-02-25T10:44:19.329Z,165.17
2023-02-25T10:46:52.180Z,168.13
2023-02-25T10:49:25.373Z,142.47
2023-02-25T10:52:03.126Z,162.43
2023-02-25T10:54:32.606Z,150.57
2023-02-25T10:57:02.296Z,162.50
2023-02-25T10:59:38.447Z,163.60
2023-02-25T11:02:23.088Z,153.87
2023-02-25T11:04:53.227Z,153.70
2023-02-25T11:07:31.335Z,152.80
2023-02-25T11:10:15.349Z,157.93
2023-02-25T11:12:45.259Z,164.83
2023-02-25T11:15:43.106Z,166.90
2023-02-25T11:18:20.673Z,157.00
2023-02-25T11:20:54.011Z,174.63
2023-02-25T11:23:25.642Z,182.13
2023-02-25T11:25:54.201Z,179.43
2023-02-25T11:28:30.144Z,198.47
2023-02-25T11:31:07.061Z,203.37
2023-02-25T11:33:37.460Z,221.47
2023-02-25T11:36:07.747Z,232.37
2023-02-25T11:38:37.905Z,220.20
2023-02-25T11:41:17.280Z,213.67
2023-02-25T11:43:45.381Z,225.80
2023-02-25T11:46:19.539Z,232.10
2023-02-25T11:48:50.041Z,223.23
2023-02-25T11:51:25.419Z,214.60
2023-02-25T11:54:05.434Z,231.17
2023-02-25T11:56:36.625Z,202.97
2023-02-25T11:59:23.428Z,218.47
2023-02-25T12:02:21.618Z,213.43
2023-02-25T12:05:29.696Z,210.83
2023-02-25T12:08:14.217Z,213.33
2023-02-25T12:11:12.467Z,195.07
2023-02-25T12:14:13.936Z,215.80
2023-02-25T12:17:07.043Z,209.57
2023-02-25T12:20:14.426Z,217.43
2023-02-25T12:23:15.645Z,204.27
2023-02-25T12:25:51.522Z,213.43
2023-02-25T12:28:45.418Z,225.97
2023-02-25T12:31:47.311Z,212.17
2023-02-25T12:34:36.515Z,216.30
2023-02-25T12:37:18.323Z,209.77
2023-02-25T12:40:06.466Z,190.90
2023-02-25T12:42:49.525Z,220.43
2023-02-25T12:45:37.015Z,207.60
2023-02-25T12:48:38.906Z,194.27
2023-02-25T12:51:25.023Z,179.13
2023-02-25T12:53:59.137Z,186.33
2023-02-25T12:56:42.692Z,199.90
2023-02-25T12:59:33.640Z,198.43
2023-02-25T13:02:20.184Z,203.00
2023-02-25T13:05:24.071Z,192.87
2023-02-25T13:08:24.711Z,178.43
2023-02-25T13:11:01.226Z,188.00
2023-02-25T13:13:54.402Z,186.13
2023-02-25T13:16:36.370Z,190.10
2023-02-25T13:19:30.062Z,180.50
2023-02-25T13:22:20.407Z,178.37
2023-02-25T13:24:55.701Z,177.17
2023-02-25T13:27:49.549Z,187.00
2023-02-25T13:30:34.169Z,177.67
2023-02-25T13:33:18.996Z,166.03
2023-02-25T13:35:55.491Z,169.60
2023-02-25T13:38:40.083Z,156.20
2023-02-25T13:41:27.538Z,138.83
2023-02-25T13:44:14.687Z,140.17
2023-02-25T13:47:08.423Z,133.20
2023-02-25T13:49:57.943Z,129.50
2023-02-25T13:52:32.112Z,111.23
2023-02-25T13:55:24.848Z,122.67
2023-02-25T13:58:16.818Z,128.47
2023-02-25T14:01:15.137Z,122.93
2023-02-25T14:04:03.563Z,125.70
2023-02-25T14:06:51.519Z,124.30
2023-02-25T14:09:35.103Z,137.10
2023-02-25T14:12:13.141Z,133.37
2023-02-25T14:15:08.310Z,141.83
2023-02-25T14:18:01.740Z,143.00
2023-02-25T14:20:49.706Z,131.67
2023-02-25T14:23:26.679Z,141.40
2023-02-25T14:26:27.950Z,147.57
2023-02-25T14:29:11.232Z,135.07
2023-02-25T14:31:51.617Z,140.43
2023-02-25T14:34:39.872Z,143.97
2023-02-25T14:37:30.546Z,156.57
2023-02-25T14:40:18.876Z,140.03
2023-02-25T14:43:06.237Z,134.30
2023-02-25T14:45:37.890Z,134.63
2023-02-25T14:48:11.866Z,147.17
2023-02-25T14:50:46.319Z,147.30
2023-02-25T14:54:00.188Z,147.30
2023-02-25T14:56:48.679Z,152.83
2023-02-25T14:59:47.441Z,160.40
2023-02-25T15:02:45.209Z,154.60
2023-02-25T15:05:32.413Z,148.60
2023-02-25T15:08:23.058Z,154.73
2023-02-25T15:11:17.480Z,140.63
2023-02-25T15:14:24.255Z,144.97
2023-02-25T15:17:24.797Z,140.43
2023-02-25T15:20:14.928Z,129.97
2023-02-25T15:22:56.470Z,136.53
2023-02-25T15:25:43.814Z,147.93
2023-02-25T15:28:39.477Z,123.20
2023-02-25T15:31:38.758Z,153.30
2023-02-25T15:34:33.996Z,139.30
2023-02-25T15:37:31.035Z,131.97
2023-02-25T15:40:00.224Z,138.90
2023-02-25T15:42:46.045Z,149.67
2023-02-25T15:45:41.732Z,146.20
2023-02-25T15:48:30.703Z,140.43
2023-02-25T15:51:00.041Z,126.73
2023-02-25T15:53:48.252Z,120.77
2023-02-25T15:56:30.753Z,105.93
2023-02-25T15:58:59.956Z,105.00
2023-02-25T16:01:42.957Z,106.73
2023-02-25T16:04:46.153Z,92.20
2023-02-25T16:07:17.226Z,84.07
2023-02-25T16:09:51.574Z,93.00
2023-02-25T16:12:20.387Z,87.73
2023-02-25T16:14:48.324Z,91.03
2023-02-25T16:17:20.977Z,96.93
2023-02-25T16:19:52.863Z,104.27
2023-02-25T16:22:23.382Z,107.43
2023-02-25T16:24:52.926Z,104.60
2023-02-25T16:27:42.560Z,110.10
2023-02-25T16:30:17.038Z,106.00
2023-02-25T16:32:59.250Z,103.13
2023-02-25T16:35:33.384Z,104.63
2023-02-25T16:38:08.211Z,105.30
2023-02-25T16:40:38.974Z,106.87
2023-02-25T16:43:12.684Z,106.07
2023-02-25T16:45:44.649Z,114.23
2023-02-25T16:48:19.732Z,109.47
2023-02-25T16:50:50.891Z,96.50
2023-02-25T16:53:22.482Z,105.47
2023-02-25T16:55:51.367Z,101.33
2023-02-25T16:58:24.522Z,92.60
2023-02-25T17:00:54.338Z,102.90
2023-02-25T17:03:25.188Z,93.80
2023-02-25T17:06:03.430Z,93.93
2023-02-25T17:08:31.158Z,88.60
2023-02-25T17:11:00.702Z,95.83
2023-02-25T17:13:32.543Z,96.70
2023-02-25T17:16:03.725Z,91.47
2023-02-25T17:18:35.567Z,89.17
2023-02-25T17:21:07.507Z,90.50
2023-02-25T17:23:39.769Z,85.70
2023-02-25T17:26:09.727Z,85.57
2023-02-25T17:28:37.707Z,85.07
2023-02-25T17:31:10.336Z,82.53
2023-02-25T17:33:49.152Z,76.40
2023-02-25T17:36:20.379Z,73.93
2023-02-25T17:38:52.247Z,75.43
2023-02-25T17:41:22.121Z,70.63
2023-02-25T17:43:50.203Z,67.30
2023-02-25T17:46:26.683Z,70.10
2023-02-25T17:48:58.276Z,70.43
2023-02-25T17:51:33.531Z,73.83
2023-02-25T17:54:06.132Z,74.90
2023-02-25T17:56:35.640Z,75.60
2023-02-25T17:59:06.646Z,68.93
2023-02-25T18:01:47.333Z,70.80
2023-02-25T18:04:25.921Z,69.13
2023-02-25T18:06:55.357Z,70.90
2023-02-25T18:09:44.187Z,71.50
2023-02-25T18:12:23.037Z,65.03
2023-02-25T18:14:55.317Z,66.47
2023-02-25T18:17:28.112Z,68.83
2023-02-25T18:19:59.808Z,73.90
2023-02-25T18:22:32.690Z,68.37
2023-02-25T18:25:02.690Z,68.20
2023-02-25T18:27:32.781Z,75.13
2023-02-25T18:30:18.062Z,72.07
2023-02-25T18:32:46.057Z,72.90
2023-02-25T18:35:16.080Z,70.87
2023-02-25T18:37:45.539Z,74.57
2023-02-25T18:40:17.775Z,77.23
2023-02-25T18:42:45.435Z,82.47
2023-02-25T18:45:15.600Z,77.73
2023-02-25T18:47:43.303Z,75.57
2023-02-25T18:50:12.882Z,83.17
2023-02-25T18:52:42.924Z,79.93
2023-02-25T18:55:16.816Z,84.40
2023-02-25T18:57:44.528Z,74.73
2023-02-25T19:00:13.553Z,76.33
2023-02-25T19:02:48.111Z,70.10
2023-02-25T19:05:16.980Z,73.00
2023-02-25T19:07:46.594Z,76.53
2023-02-25T19:10:17.176Z,65.63
2023-02-25T19:12:48.455Z,70.07
2023-02-25T19:15:19.504Z,60.17
2023-02-25T19:17:47.885Z,58.07
2023-02-25T19:20:17.068Z,66.23
2023-02-25T19:22:47.635Z,57.67
2023-02-25T19:25:20.272Z,54.80
2023-02-25T19:27:48.034Z,51.27
2023-02-25T19:30:17.699Z,59.13
2023-02-25T19:32:45.389Z,56.43
2023-02-25T19:35:13.385Z,56.07
2023-02-25T19:37:42.549Z,54.37
2023-02-25T19:40:14.528Z,50.60
2023-02-25T19:42:44.433Z,49.27
2023-02-25T19:45:16.944Z,48.03
2023-02-25T19:47:44.607Z,47.70
2023-02-25T19:50:12.954Z,51.93
2023-02-25T19:52:40.844Z,52.23
2023-02-25T19:55:11.266Z,49.53
2023-02-25T19:57:41.504Z,49.80
2023-02-25T20:00:11.590Z,49.33
2023-02-25T20:02:43.321Z,49.97
2023-02-25T20:05:11.667Z,46.73
2023-02-25T20:07:40.047Z,44.37
2023-02-25T20:10:10.927Z,49.17
2023-02-25T20:12:40.354Z,45.47
2023-02-25T20:15:09.606Z,47.23
2023-02-25T20:17:37.516Z,45.20
2023-02-25T20:20:06.993Z,49.60
2023-02-25T20:22:35.011Z,48.83
2023-02-25T20:25:03.014Z,47.70
2023-02-25T20:27:30.705Z,43.50
2023-02-25T20:29:59.676Z,48.00
2023-02-25T20:32:27.347Z,44.93
2023-02-25T20:34:55.394Z,43.37
2023-02-25T20:37:25.617Z,48.93
2023-02-25T20:39:55.399Z,47.53
2023-02-25T20:42:24.984Z,45.03
2023-02-25T20:44:53.421Z,45.07
2023-02-25T20:47:24.567Z,43.83
2023-02-25T20:49:53.065Z,44.47
2023-02-25T20:52:21.419Z,42.63
2023-02-25T20:54:49.787Z,47.40
2023-02-25T20:57:20.027Z,43.37
2023-02-25T20:59:48.228Z,42.90
2023-02-25T21:02:16.585Z,48.77
2023-02-25T21:04:46.575Z,48.17
2023-02-25T21:07:14.842Z,45.27
2023-02-25T21:09:42.545Z,39.30
2023-02-25T21:12:11.101Z,49.53
2023-02-25T21:14:38.768Z,43.47
2023-02-25T21:17:09.299Z,43.37
2023-02-25T21:19:38.442Z,39.10
2023-02-25T21:22:07.862Z,39.87
2023-02-25T21:24:36.698Z,42.30
2023-02-25T21:27:04.970Z,38.70
2023-02-25T21:29:33.202Z,41.87
2023-02-25T21:32:01.053Z,40.33
2023-02-25T21:34:28.924Z,44.90
2023-02-25T21:36:58.561Z,39.30
2023-02-25T21:39:27.954Z,39.10
2023-02-25T21:41:55.714Z,43.10
2023-02-25T21:44:23.451Z,37.73
2023-02-25T21:46:51.048Z,43.50
2023-02-25T21:49:18.929Z,39.37
2023-02-25T21:51:46.609Z,42.33
2023-02-25T21:54:15.334Z,41.77
2023-02-25T21:56:44.330Z,41.50
2023-02-25T21:59:12.331Z,38.53
2023-02-25T22:01:42.184Z,43.47
2023-02-25T22:04:11.097Z,40.83
2023-02-25T22:06:39.190Z,42.87
2023-02-25T22:09:07.309Z,39.83
2023-02-25T22:11:36.795Z,40.73
2023-02-25T22:14:08.194Z,41.00
2023-02-25T22:16:37.663Z,39.53
2023-02-25T22:19:05.431Z,43.00
2023-02-25T22:21:34.335Z,41.20
2023-02-25T22:24:04.156Z,43.07
2023-02-25T22:26:34.178Z,38.37
2023-02-25T22:29:03.197Z,40.77
2023-02-25T22:31:34.099Z,38.60
2023-02-25T22:34:03.081Z,38.87
2023-02-25T22:36:30.857Z,40.03
2023-02-25T22:38:58.661Z,41.43
2023-02-25T22:41:28.259Z,42.43
2023-02-25T22:43:56.256Z,38.87
2023-02-25T22:46:26.055Z,38.23
2023-02-25T22:48:55.833Z,42.13
2023-02-25T22:51:25.183Z,40.23
2023-02-25T22:53:53.718Z,38.37
2023-02-25T22:56:21.923Z,41.10
2023-02-25T22:58:50.027Z,35.40
2023-02-25T23:01:19.698Z,33.43
2023-02-25T23:03:48.346Z,38.70
2023-02-25T23:06:20.200Z,36.53
2023-02-25T23:08:47.971Z,33.57
2023-02-25T23:11:18.397Z,37.93
2023-02-25T23:13:48.124Z,33.43
2023-02-25T23:16:17.132Z,34.20
2023-02-25T23:18:45.487Z,33.40
2023-02-25T23:21:18.939Z,35.27
2023-02-25T23:23:48.837Z,35.80
2023-02-25T23:26:18.790Z,39.23
2023-02-25T23:28:47.506Z,38.90
2023-02-25T23:31:21.668Z,35.67
2023-02-25T23:33:49.426Z,38.73
2023-02-25T23:36:17.276Z,33.30
2023-02-25T23:38:45.497Z,36.27
2023-02-25T23:41:14.494Z,38.53
2023-02-25T23:43:42.181Z,37.13
2023-02-25T23:46:10.194Z,37.07
2023-02-25T23:48:38.015Z,36.33
2023-02-25T23:51:06.486Z,36.80
2023-02-25T23:53:34.910Z,37.00
2023-02-25T23:56:06.238Z,35.60
2023-02-25T23:58:35.633Z,37.40
